sensor_id;sensor_type;location;lat;lon;timestamp;P1;durP1;ratioP1;P2;durP2;ratioP2
25917;SDS011;13899;51.174;4.456;2022-11-20T00:00:57;32.33;;;22.27;;
25917;SDS011;13899;51.174;4.456;2022-11-20T00:03:28;35.78;;;21.73;;
25917;SDS011;13899;51.174;4.456;2022-11-20T00:05:54;26.00;;;20.13;;
25917;SDS011;13899;51.174;4.456;2022-11-20T00:08:25;26.67;;;21.10;;
25917;SDS011;13899;51.174;4.456;2022-11-20T00:10:50;29.07;;;18.13;;
25917;SDS011;13899;51.174;4.456;2022-11-20T00:13:16;36.58;;;22.92;;
25917;SDS011;13899;51.174;4.456;2022-11-20T00:15:41;29.37;;;20.73;;
25917;SDS011;13899;51.174;4.456;2022-11-20T00:18:07;23.77;;;16.63;;
25917;SDS011;13899;51.174;4.456;2022-11-20T00:20:32;36.97;;;22.07;;
25917;SDS011;13899;51.174;4.456;2022-11-20T00:22:58;23.80;;;16.13;;
25917;SDS011;13899;51.174;4.456;2022-11-20T00:25:24;33.33;;;20.57;;
25917;SDS011;13899;51.174;4.456;2022-11-20T00:27:50;28.53;;;21.37;;
25917;SDS011;13899;51.174;4.456;2022-11-20T00:30:15;36.20;;;21.65;;
25917;SDS011;13899;51.174;4.456;2022-11-20T00:32:41;33.37;;;23.00;;
25917;SDS011;13899;51.174;4.456;2022-11-20T00:35:07;30.33;;;21.40;;
25917;SDS011;13899;51.174;4.456;2022-11-20T00:37:32;35.73;;;21.03;;
25917;SDS011;13899;51.174;4.456;2022-11-20T00:39:58;25.27;;;20.07;;
25917;SDS011;13899;51.174;4.456;2022-11-20T00:42:23;27.73;;;20.90;;
25917;SDS011;13899;51.174;4.456;2022-11-20T00:44:49;26.10;;;19.70;;
25917;SDS011;13899;51.174;4.456;2022-11-20T00:47:14;28.97;;;19.93;;
25917;SDS011;13899;51.174;4.456;2022-11-20T00:49:40;24.40;;;19.90;;
25917;SDS011;13899;51.174;4.456;2022-11-20T00:52:06;25.20;;;20.47;;
25917;SDS011;13899;51.174;4.456;2022-11-20T00:54:31;25.13;;;19.40;;
25917;SDS011;13899;51.174;4.456;2022-11-20T00:56:57;29.53;;;20.27;;
25917;SDS011;13899;51.174;4.456;2022-11-20T00:59:22;27.67;;;20.50;;
25917;SDS011;13899;51.174;4.456;2022-11-20T01:01:48;31.30;;;21.00;;
25917;SDS011;13899;51.174;4.456;2022-11-20T01:04:13;30.23;;;21.57;;
25917;SDS011;13899;51.174;4.456;2022-11-20T01:06:39;27.70;;;20.52;;
25917;SDS011;13899;51.174;4.456;2022-11-20T01:09:07;30.23;;;22.13;;
25917;SDS011;13899;51.174;4.456;2022-11-20T01:11:36;29.73;;;21.38;;
25917;SDS011;13899;51.174;4.456;2022-11-20T01:14:04;29.45;;;20.27;;
25917;SDS011;13899;51.174;4.456;2022-11-20T01:16:40;32.20;;;22.25;;
25917;SDS011;13899;51.174;4.456;2022-11-20T01:19:11;29.38;;;20.80;;
25917;SDS011;13899;51.174;4.456;2022-11-20T01:21:42;31.73;;;22.20;;
25917;SDS011;13899;51.174;4.456;2022-11-20T01:26:37;32.20;;;20.85;;
25917;SDS011;13899;51.174;4.456;2022-11-20T01:29:04;30.98;;;21.23;;
25917;SDS011;13899;51.174;4.456;2022-11-20T01:31:32;29.63;;;20.95;;
25917;SDS011;13899;51.174;4.456;2022-11-20T01:34:00;28.42;;;21.58;;
25917;SDS011;13899;51.174;4.456;2022-11-20T01:36:31;29.42;;;20.63;;
25917;SDS011;13899;51.174;4.456;2022-11-20T01:38:59;29.35;;;21.55;;
25917;SDS011;13899;51.174;4.456;2022-11-20T01:41:28;29.40;;;20.83;;
25917;SDS011;13899;51.174;4.456;2022-11-20T01:44:15;24.52;;;19.27;;
25917;SDS011;13899;51.174;4.456;2022-11-20T01:47:04;26.98;;;19.83;;
25917;SDS011;13899;51.174;4.456;2022-11-20T01:49:40;32.80;;;21.60;;
25917;SDS011;13899;51.174;4.456;2022-11-20T01:52:24;29.50;;;21.13;;
25917;SDS011;13899;51.174;4.456;2022-11-20T01:54:59;28.23;;;20.50;;
25917;SDS011;13899;51.174;4.456;2022-11-20T01:57:33;34.45;;;23.65;;
25917;SDS011;13899;51.174;4.456;2022-11-20T02:00:10;29.80;;;21.90;;
25917;SDS011;13899;51.174;4.456;2022-11-20T02:02:39;33.13;;;22.92;;
25917;SDS011;13899;51.174;4.456;2022-11-20T02:05:10;33.40;;;23.20;;
25917;SDS011;13899;51.174;4.456;2022-11-20T02:07:45;38.17;;;22.98;;
25917;SDS011;13899;51.174;4.456;2022-11-20T02:10:12;36.65;;;23.15;;
25917;SDS011;13899;51.174;4.456;2022-11-20T02:12:37;31.77;;;22.67;;
25917;SDS011;13899;51.174;4.456;2022-11-20T02:15:22;34.90;;;22.48;;
25917;SDS011;13899;51.174;4.456;2022-11-20T02:17:47;35.73;;;23.97;;
25917;SDS011;13899;51.174;4.456;2022-11-20T02:20:13;32.63;;;22.33;;
25917;SDS011;13899;51.174;4.456;2022-11-20T02:22:43;30.00;;;22.63;;
25917;SDS011;13899;51.174;4.456;2022-11-20T02:25:36;32.78;;;22.65;;
25917;SDS011;13899;51.174;4.456;2022-11-20T02:28:02;27.08;;;20.73;;
25917;SDS011;13899;51.174;4.456;2022-11-20T02:30:29;26.85;;;20.92;;
25917;SDS011;13899;51.174;4.456;2022-11-20T02:32:55;30.57;;;21.83;;
25917;SDS011;13899;51.174;4.456;2022-11-20T02:37:48;28.50;;;21.77;;
25917;SDS011;13899;51.174;4.456;2022-11-20T02:40:17;27.48;;;20.35;;
25917;SDS011;13899;51.174;4.456;2022-11-20T02:42:43;27.57;;;20.00;;
25917;SDS011;13899;51.174;4.456;2022-11-20T02:45:08;30.73;;;20.90;;
25917;SDS011;13899;51.174;4.456;2022-11-20T02:47:34;30.73;;;21.13;;
25917;SDS011;13899;51.174;4.456;2022-11-20T02:50:00;22.10;;;16.23;;
25917;SDS011;13899;51.174;4.456;2022-11-20T02:52:26;30.00;;;20.27;;
25917;SDS011;13899;51.174;4.456;2022-11-20T02:54:52;29.10;;;21.87;;
25917;SDS011;13899;51.174;4.456;2022-11-20T02:57:18;34.40;;;22.70;;
25917;SDS011;13899;51.174;4.456;2022-11-20T02:59:43;27.20;;;19.97;;
25917;SDS011;13899;51.174;4.456;2022-11-20T03:02:09;34.10;;;22.37;;
25917;SDS011;13899;51.174;4.456;2022-11-20T03:04:34;30.27;;;21.17;;
25917;SDS011;13899;51.174;4.456;2022-11-20T03:07:00;32.67;;;21.13;;
25917;SDS011;13899;51.174;4.456;2022-11-20T03:09:25;30.20;;;20.70;;
25917;SDS011;13899;51.174;4.456;2022-11-20T03:11:51;25.63;;;20.60;;
25917;SDS011;13899;51.174;4.456;2022-11-20T03:14:17;33.63;;;23.08;;
25917;SDS011;13899;51.174;4.456;2022-11-20T03:16:42;28.97;;;21.47;;
25917;SDS011;13899;51.174;4.456;2022-11-20T03:19:08;29.00;;;20.67;;
25917;SDS011;13899;51.174;4.456;2022-11-20T03:21:34;29.87;;;20.83;;
25917;SDS011;13899;51.174;4.456;2022-11-20T03:23:59;29.17;;;20.83;;
25917;SDS011;13899;51.174;4.456;2022-11-20T03:26:26;32.10;;;21.20;;
25917;SDS011;13899;51.174;4.456;2022-11-20T03:28:53;33.60;;;21.88;;
25917;SDS011;13899;51.174;4.456;2022-11-20T03:31:27;31.48;;;20.45;;
25917;SDS011;13899;51.174;4.456;2022-11-20T03:34:05;33.70;;;21.85;;
25917;SDS011;13899;51.174;4.456;2022-11-20T03:36:31;34.43;;;22.70;;
25917;SDS011;13899;51.174;4.456;2022-11-20T03:38:56;27.60;;;20.57;;
25917;SDS011;13899;51.174;4.456;2022-11-20T03:41:23;33.85;;;21.75;;
25917;SDS011;13899;51.174;4.456;2022-11-20T03:43:52;39.42;;;23.35;;
25917;SDS011;13899;51.174;4.456;2022-11-20T03:46:23;48.85;;;25.20;;
25917;SDS011;13899;51.174;4.456;2022-11-20T03:48:49;48.78;;;27.63;;
25917;SDS011;13899;51.174;4.456;2022-11-20T03:51:16;57.13;;;28.30;;
25917;SDS011;13899;51.174;4.456;2022-11-20T03:53:45;57.28;;;28.42;;
25917;SDS011;13899;51.174;4.456;2022-11-20T03:56:12;57.60;;;29.45;;
25917;SDS011;13899;51.174;4.456;2022-11-20T03:58:39;54.90;;;29.95;;
25917;SDS011;13899;51.174;4.456;2022-11-20T04:01:12;56.35;;;30.63;;
25917;SDS011;13899;51.174;4.456;2022-11-20T04:03:40;52.92;;;29.08;;
25917;SDS011;13899;51.174;4.456;2022-11-20T04:08:35;54.42;;;27.88;;
25917;SDS011;13899;51.174;4.456;2022-11-20T04:11:34;62.67;;;31.00;;
25917;SDS011;13899;51.174;4.456;2022-11-20T04:13:58;56.05;;;30.35;;
25917;SDS011;13899;51.174;4.456;2022-11-20T04:16:25;56.50;;;30.65;;
25917;SDS011;13899;51.174;4.456;2022-11-20T04:18:54;55.20;;;28.67;;
25917;SDS011;13899;51.174;4.456;2022-11-20T04:21:21;55.17;;;27.90;;
25917;SDS011;13899;51.174;4.456;2022-11-20T04:23:47;62.30;;;30.80;;
25917;SDS011;13899;51.174;4.456;2022-11-20T04:26:13;53.33;;;28.67;;
25917;SDS011;13899;51.174;4.456;2022-11-20T04:28:39;56.93;;;31.23;;
25917;SDS011;13899;51.174;4.456;2022-11-20T04:31:14;57.27;;;30.17;;
25917;SDS011;13899;51.174;4.456;2022-11-20T04:33:41;52.00;;;29.55;;
25917;SDS011;13899;51.174;4.456;2022-11-20T04:36:10;52.30;;;28.40;;
25917;SDS011;13899;51.174;4.456;2022-11-20T04:38:38;62.90;;;31.75;;
25917;SDS011;13899;51.174;4.456;2022-11-20T04:41:06;58.63;;;29.17;;
25917;SDS011;13899;51.174;4.456;2022-11-20T04:43:41;56.00;;;29.17;;
25917;SDS011;13899;51.174;4.456;2022-11-20T04:46:06;50.40;;;29.60;;
25917;SDS011;13899;51.174;4.456;2022-11-20T04:48:32;54.60;;;28.57;;
25917;SDS011;13899;51.174;4.456;2022-11-20T04:51:02;49.80;;;28.63;;
25917;SDS011;13899;51.174;4.456;2022-11-20T04:53:29;54.13;;;29.73;;
25917;SDS011;13899;51.174;4.456;2022-11-20T04:56:02;51.77;;;28.80;;
25917;SDS011;13899;51.174;4.456;2022-11-20T04:58:29;57.25;;;31.02;;
25917;SDS011;13899;51.174;4.456;2022-11-20T05:01:28;53.67;;;29.80;;
25917;SDS011;13899;51.174;4.456;2022-11-20T05:03:48;55.83;;;30.65;;
25917;SDS011;13899;51.174;4.456;2022-11-20T05:06:21;63.10;;;32.60;;
25917;SDS011;13899;51.174;4.456;2022-11-20T05:08:47;64.07;;;32.25;;
25917;SDS011;13899;51.174;4.456;2022-11-20T05:11:13;57.83;;;31.83;;
25917;SDS011;13899;51.174;4.456;2022-11-20T05:13:41;59.28;;;30.38;;
25917;SDS011;13899;51.174;4.456;2022-11-20T05:16:09;57.55;;;31.63;;
25917;SDS011;13899;51.174;4.456;2022-11-20T05:18:36;57.70;;;31.42;;
25917;SDS011;13899;51.174;4.456;2022-11-20T05:21:03;63.90;;;31.98;;
25917;SDS011;13899;51.174;4.456;2022-11-20T05:23:29;58.83;;;30.05;;
25917;SDS011;13899;51.174;4.456;2022-11-20T05:25:56;57.33;;;29.88;;
25917;SDS011;13899;51.174;4.456;2022-11-20T05:28:22;56.67;;;32.08;;
25917;SDS011;13899;51.174;4.456;2022-11-20T05:30:49;54.53;;;29.95;;
25917;SDS011;13899;51.174;4.456;2022-11-20T05:33:15;55.25;;;28.75;;
25917;SDS011;13899;51.174;4.456;2022-11-20T05:35:41;53.53;;;29.85;;
25917;SDS011;13899;51.174;4.456;2022-11-20T05:38:07;59.47;;;31.23;;
25917;SDS011;13899;51.174;4.456;2022-11-20T05:40:33;57.40;;;30.90;;
25917;SDS011;13899;51.174;4.456;2022-11-20T05:42:59;60.00;;;29.87;;
25917;SDS011;13899;51.174;4.456;2022-11-20T05:45:24;55.73;;;30.53;;
25917;SDS011;13899;51.174;4.456;2022-11-20T05:47:50;58.33;;;32.40;;
25917;SDS011;13899;51.174;4.456;2022-11-20T05:50:16;56.83;;;28.53;;
25917;SDS011;13899;51.174;4.456;2022-11-20T05:52:41;57.33;;;30.93;;
25917;SDS011;13899;51.174;4.456;2022-11-20T05:55:07;45.95;;;24.23;;
25917;SDS011;13899;51.174;4.456;2022-11-20T05:57:33;58.13;;;29.83;;
25917;SDS011;13899;51.174;4.456;2022-11-20T05:59:58;59.97;;;31.47;;
25917;SDS011;13899;51.174;4.456;2022-11-20T06:02:24;54.43;;;29.87;;
25917;SDS011;13899;51.174;4.456;2022-11-20T06:04:50;54.70;;;29.55;;
25917;SDS011;13899;51.174;4.456;2022-11-20T06:07:15;54.93;;;29.30;;
25917;SDS011;13899;51.174;4.456;2022-11-20T06:09:41;56.95;;;29.50;;
25917;SDS011;13899;51.174;4.456;2022-11-20T06:12:06;55.57;;;30.03;;
25917;SDS011;13899;51.174;4.456;2022-11-20T06:14:32;59.87;;;30.40;;
25917;SDS011;13899;51.174;4.456;2022-11-20T06:16:58;52.97;;;28.35;;
25917;SDS011;13899;51.174;4.456;2022-11-20T06:19:23;47.43;;;28.40;;
25917;SDS011;13899;51.174;4.456;2022-11-20T06:21:49;47.37;;;28.07;;
25917;SDS011;13899;51.174;4.456;2022-11-20T06:24:15;51.63;;;27.43;;
25917;SDS011;13899;51.174;4.456;2022-11-20T06:26:41;46.70;;;27.67;;
25917;SDS011;13899;51.174;4.456;2022-11-20T06:29:07;60.57;;;30.30;;
25917;SDS011;13899;51.174;4.456;2022-11-20T06:31:33;56.30;;;29.17;;
25917;SDS011;13899;51.174;4.456;2022-11-20T06:34:02;53.17;;;28.65;;
25917;SDS011;13899;51.174;4.456;2022-11-20T06:36:31;55.83;;;29.10;;
25917;SDS011;13899;51.174;4.456;2022-11-20T06:38:57;59.67;;;30.63;;
25917;SDS011;13899;51.174;4.456;2022-11-20T06:41:24;52.95;;;30.70;;
25917;SDS011;13899;51.174;4.456;2022-11-20T06:43:50;54.42;;;29.20;;
25917;SDS011;13899;51.174;4.456;2022-11-20T06:46:17;60.60;;;31.03;;
25917;SDS011;13899;51.174;4.456;2022-11-20T06:48:43;55.38;;;30.05;;
25917;SDS011;13899;51.174;4.456;2022-11-20T06:51:10;52.42;;;29.98;;
25917;SDS011;13899;51.174;4.456;2022-11-20T06:53:35;57.00;;;30.63;;
25917;SDS011;13899;51.174;4.456;2022-11-20T06:56:02;54.33;;;29.98;;
25917;SDS011;13899;51.174;4.456;2022-11-20T06:58:28;60.75;;;30.23;;
25917;SDS011;13899;51.174;4.456;2022-11-20T07:00:59;55.38;;;29.67;;
25917;SDS011;13899;51.174;4.456;2022-11-20T07:03:25;54.13;;;29.35;;
25917;SDS011;13899;51.174;4.456;2022-11-20T07:05:51;58.43;;;30.17;;
25917;SDS011;13899;51.174;4.456;2022-11-20T07:08:18;56.17;;;29.42;;
25917;SDS011;13899;51.174;4.456;2022-11-20T07:10:44;55.83;;;29.07;;
25917;SDS011;13899;51.174;4.456;2022-11-20T07:13:10;53.80;;;29.45;;
25917;SDS011;13899;51.174;4.456;2022-11-20T07:15:35;54.30;;;30.47;;
25917;SDS011;13899;51.174;4.456;2022-11-20T07:18:01;56.17;;;30.03;;
25917;SDS011;13899;51.174;4.456;2022-11-20T07:20:27;44.60;;;22.33;;
25917;SDS011;13899;51.174;4.456;2022-11-20T07:22:56;47.33;;;28.00;;
25917;SDS011;13899;51.174;4.456;2022-11-20T07:25:23;50.47;;;28.42;;
25917;SDS011;13899;51.174;4.456;2022-11-20T07:27:49;53.72;;;27.92;;
25917;SDS011;13899;51.174;4.456;2022-11-20T07:30:15;48.80;;;27.57;;
25917;SDS011;13899;51.174;4.456;2022-11-20T07:32:41;52.22;;;30.30;;
25917;SDS011;13899;51.174;4.456;2022-11-20T07:35:07;50.17;;;27.50;;
25917;SDS011;13899;51.174;4.456;2022-11-20T07:37:36;49.45;;;28.73;;
25917;SDS011;13899;51.174;4.456;2022-11-20T07:40:02;44.30;;;26.90;;
25917;SDS011;13899;51.174;4.456;2022-11-20T07:42:28;53.55;;;27.92;;
25917;SDS011;13899;51.174;4.456;2022-11-20T07:45:40;56.53;;;29.00;;
25917;SDS011;13899;51.174;4.456;2022-11-20T07:48:14;51.78;;;27.95;;
25917;SDS011;13899;51.174;4.456;2022-11-20T07:50:41;51.83;;;29.10;;
25917;SDS011;13899;51.174;4.456;2022-11-20T07:53:59;50.53;;;27.38;;
25917;SDS011;13899;51.174;4.456;2022-11-20T07:56:55;54.00;;;27.30;;
25917;SDS011;13899;51.174;4.456;2022-11-20T07:59:26;48.70;;;28.95;;
25917;SDS011;13899;51.174;4.456;2022-11-20T08:02:09;54.80;;;28.23;;
25917;SDS011;13899;51.174;4.456;2022-11-20T08:04:38;50.08;;;27.77;;
25917;SDS011;13899;51.174;4.456;2022-11-20T08:07:04;54.00;;;29.10;;
25917;SDS011;13899;51.174;4.456;2022-11-20T08:09:36;52.08;;;28.20;;
25917;SDS011;13899;51.174;4.456;2022-11-20T08:12:15;55.28;;;28.95;;
25917;SDS011;13899;51.174;4.456;2022-11-20T08:15:03;47.30;;;27.17;;
25917;SDS011;13899;51.174;4.456;2022-11-20T08:17:30;52.55;;;27.77;;
25917;SDS011;13899;51.174;4.456;2022-11-20T08:19:55;50.87;;;28.73;;
25917;SDS011;13899;51.174;4.456;2022-11-20T08:22:28;45.33;;;25.83;;
25917;SDS011;13899;51.174;4.456;2022-11-20T08:24:54;46.90;;;28.23;;
25917;SDS011;13899;51.174;4.456;2022-11-20T08:27:20;57.37;;;29.07;;
25917;SDS011;13899;51.174;4.456;2022-11-20T08:29:47;51.38;;;26.33;;
25917;SDS011;13899;51.174;4.456;2022-11-20T08:32:16;46.50;;;26.17;;
25917;SDS011;13899;51.174;4.456;2022-11-20T08:34:51;47.00;;;27.45;;
25917;SDS011;13899;51.174;4.456;2022-11-20T08:37:19;55.43;;;27.13;;
25917;SDS011;13899;51.174;4.456;2022-11-20T08:39:45;44.22;;;26.55;;
25917;SDS011;13899;51.174;4.456;2022-11-20T08:42:22;51.40;;;27.67;;
25917;SDS011;13899;51.174;4.456;2022-11-20T08:44:47;51.53;;;27.47;;
25917;SDS011;13899;51.174;4.456;2022-11-20T08:47:30;48.65;;;27.00;;
25917;SDS011;13899;51.174;4.456;2022-11-20T08:50:16;53.78;;;27.30;;
25917;SDS011;13899;51.174;4.456;2022-11-20T08:53:04;56.05;;;26.38;;
25917;SDS011;13899;51.174;4.456;2022-11-20T08:55:29;48.95;;;27.00;;
25917;SDS011;13899;51.174;4.456;2022-11-20T08:57:56;54.38;;;28.08;;
25917;SDS011;13899;51.174;4.456;2022-11-20T09:00:22;52.17;;;26.67;;
25917;SDS011;13899;51.174;4.456;2022-11-20T09:02:54;49.67;;;27.05;;
25917;SDS011;13899;51.174;4.456;2022-11-20T09:05:20;47.50;;;25.77;;
25917;SDS011;13899;51.174;4.456;2022-11-20T09:07:45;52.77;;;25.70;;
25917;SDS011;13899;51.174;4.456;2022-11-20T09:10:11;47.57;;;26.43;;
25917;SDS011;13899;51.174;4.456;2022-11-20T09:12:37;47.75;;;26.30;;
25917;SDS011;13899;51.174;4.456;2022-11-20T09:15:02;51.17;;;27.43;;
25917;SDS011;13899;51.174;4.456;2022-11-20T09:17:28;51.37;;;25.37;;
25917;SDS011;13899;51.174;4.456;2022-11-20T09:19:54;47.90;;;25.52;;
25917;SDS011;13899;51.174;4.456;2022-11-20T09:22:19;48.40;;;26.55;;
25917;SDS011;13899;51.174;4.456;2022-11-20T09:24:45;50.83;;;26.55;;
25917;SDS011;13899;51.174;4.456;2022-11-20T09:27:10;52.90;;;26.20;;
25917;SDS011;13899;51.174;4.456;2022-11-20T09:29:36;49.40;;;26.10;;
25917;SDS011;13899;51.174;4.456;2022-11-20T09:32:01;54.10;;;26.77;;
25917;SDS011;13899;51.174;4.456;2022-11-20T09:34:27;51.33;;;27.20;;
25917;SDS011;13899;51.174;4.456;2022-11-20T09:36:53;54.27;;;26.33;;
25917;SDS011;13899;51.174;4.456;2022-11-20T09:39:18;53.53;;;26.90;;
25917;SDS011;13899;51.174;4.456;2022-11-20T09:44:47;53.13;;;26.77;;
25917;SDS011;13899;51.174;4.456;2022-11-20T09:47:31;51.53;;;25.65;;
25917;SDS011;13899;51.174;4.456;2022-11-20T09:50:24;53.92;;;25.52;;
25917;SDS011;13899;51.174;4.456;2022-11-20T09:55:33;53.47;;;26.35;;
25917;SDS011;13899;51.174;4.456;2022-11-20T09:58:01;56.10;;;27.13;;
25917;SDS011;13899;51.174;4.456;2022-11-20T10:00:39;53.78;;;25.92;;
25917;SDS011;13899;51.174;4.456;2022-11-20T10:06:03;62.90;;;27.38;;
25917;SDS011;13899;51.174;4.456;2022-11-20T10:08:39;62.42;;;28.50;;
25917;SDS011;13899;51.174;4.456;2022-11-20T10:11:32;68.57;;;28.33;;
25917;SDS011;13899;51.174;4.456;2022-11-20T10:14:15;72.53;;;29.58;;
25917;SDS011;13899;51.174;4.456;2022-11-20T10:25:16;75.80;;;29.23;;
25917;SDS011;13899;51.174;4.456;2022-11-20T10:27:50;86.43;;;31.10;;
25917;SDS011;13899;51.174;4.456;2022-11-20T10:30:42;81.63;;;31.38;;
25917;SDS011;13899;51.174;4.456;2022-11-20T10:33:16;81.07;;;31.55;;
25917;SDS011;13899;51.174;4.456;2022-11-20T10:36:32;86.50;;;32.42;;
25917;SDS011;13899;51.174;4.456;2022-11-20T10:38:43;84.30;;;32.53;;
25917;SDS011;13899;51.174;4.456;2022-11-20T10:41:20;79.55;;;30.73;;
25917;SDS011;13899;51.174;4.456;2022-11-20T10:44:14;83.45;;;33.08;;
25917;SDS011;13899;51.174;4.456;2022-11-20T10:47:13;85.28;;;32.88;;
25917;SDS011;13899;51.174;4.456;2022-11-20T10:49:41;81.10;;;31.10;;
25917;SDS011;13899;51.174;4.456;2022-11-20T10:54:45;85.30;;;32.08;;
25917;SDS011;13899;51.174;4.456;2022-11-20T10:57:29;87.03;;;33.20;;
25917;SDS011;13899;51.174;4.456;2022-11-20T11:00:10;80.47;;;31.42;;
25917;SDS011;13899;51.174;4.456;2022-11-20T11:02:42;75.10;;;30.40;;
25917;SDS011;13899;51.174;4.456;2022-11-20T11:05:25;79.68;;;29.98;;
25917;SDS011;13899;51.174;4.456;2022-11-20T11:08:15;81.90;;;31.98;;
25917;SDS011;13899;51.174;4.456;2022-11-20T11:15:47;74.32;;;30.45;;
25917;SDS011;13899;51.174;4.456;2022-11-20T11:18:22;72.32;;;30.77;;
25917;SDS011;13899;51.174;4.456;2022-11-20T11:20:54;65.90;;;28.67;;
25917;SDS011;13899;51.174;4.456;2022-11-20T11:23:40;65.47;;;29.08;;
25917;SDS011;13899;51.174;4.456;2022-11-20T11:26:18;65.15;;;28.92;;
25917;SDS011;13899;51.174;4.456;2022-11-20T11:28:58;68.07;;;30.05;;
25917;SDS011;13899;51.174;4.456;2022-11-20T11:31:25;60.65;;;28.20;;
25917;SDS011;13899;51.174;4.456;2022-11-20T11:34:03;65.18;;;26.95;;
25917;SDS011;13899;51.174;4.456;2022-11-20T11:36:35;62.97;;;27.00;;
25917;SDS011;13899;51.174;4.456;2022-11-20T11:39:02;62.30;;;27.55;;
25917;SDS011;13899;51.174;4.456;2022-11-20T11:41:32;61.42;;;25.55;;
25917;SDS011;13899;51.174;4.456;2022-11-20T11:47:02;63.92;;;28.45;;
25917;SDS011;13899;51.174;4.456;2022-11-20T11:49:31;55.08;;;25.63;;
25917;SDS011;13899;51.174;4.456;2022-11-20T11:54:37;57.45;;;24.05;;
25917;SDS011;13899;51.174;4.456;2022-11-20T11:57:12;54.83;;;24.70;;
25917;SDS011;13899;51.174;4.456;2022-11-20T12:00:06;58.78;;;24.88;;
25917;SDS011;13899;51.174;4.456;2022-11-20T12:05:30;62.40;;;25.27;;
25917;SDS011;13899;51.174;4.456;2022-11-20T12:13:54;48.70;;;22.10;;
25917;SDS011;13899;51.174;4.456;2022-11-20T12:16:50;51.47;;;23.63;;
25917;SDS011;13899;51.174;4.456;2022-11-20T12:19:29;47.97;;;23.08;;
25917;SDS011;13899;51.174;4.456;2022-11-20T12:30:53;44.55;;;24.08;;
25917;SDS011;13899;51.174;4.456;2022-11-20T12:33:50;42.67;;;20.27;;
25917;SDS011;13899;51.174;4.456;2022-11-20T12:36:41;34.55;;;19.98;;
25917;SDS011;13899;51.174;4.456;2022-11-20T12:42:05;44.97;;;20.43;;
25917;SDS011;13899;51.174;4.456;2022-11-20T12:48:41;23.08;;;12.52;;
25917;SDS011;13899;51.174;4.456;2022-11-20T12:54:01;13.38;;;7.10;;
25917;SDS011;13899;51.174;4.456;2022-11-20T12:57:13;11.25;;;6.88;;
25917;SDS011;13899;51.174;4.456;2022-11-20T12:59:58;10.50;;;6.07;;
25917;SDS011;13899;51.174;4.456;2022-11-20T13:08:56;14.65;;;6.18;;
25917;SDS011;13899;51.174;4.456;2022-11-20T13:11:38;10.40;;;5.85;;
25917;SDS011;13899;51.174;4.456;2022-11-20T13:17:08;8.48;;;6.28;;
25917;SDS011;13899;51.174;4.456;2022-11-20T13:19:39;10.07;;;6.18;;
25917;SDS011;13899;51.174;4.456;2022-11-20T13:22:07;10.98;;;6.68;;
25917;SDS011;13899;51.174;4.456;2022-11-20T13:24:37;8.57;;;5.57;;
25917;SDS011;13899;51.174;4.456;2022-11-20T13:29:47;13.27;;;6.55;;
25917;SDS011;13899;51.174;4.456;2022-11-20T13:32:27;9.93;;;6.28;;
25917;SDS011;13899;51.174;4.456;2022-11-20T13:35:02;9.18;;;6.43;;
25917;SDS011;13899;51.174;4.456;2022-11-20T13:37:31;11.15;;;6.90;;
25917;SDS011;13899;51.174;4.456;2022-11-20T13:40:31;9.68;;;6.90;;
25917;SDS011;13899;51.174;4.456;2022-11-20T13:43:01;11.70;;;6.85;;
25917;SDS011;13899;51.174;4.456;2022-11-20T13:45:54;8.82;;;6.28;;
25917;SDS011;13899;51.174;4.456;2022-11-20T13:48:24;11.85;;;7.25;;
25917;SDS011;13899;51.174;4.456;2022-11-20T13:50:59;12.93;;;6.80;;
25917;SDS011;13899;51.174;4.456;2022-11-20T13:53:43;15.48;;;7.78;;
25917;SDS011;13899;51.174;4.456;2022-11-20T13:57:12;9.52;;;6.97;;
25917;SDS011;13899;51.174;4.456;2022-11-20T13:59:42;14.77;;;8.43;;
25917;SDS011;13899;51.174;4.456;2022-11-20T14:02:22;14.80;;;8.55;;
25917;SDS011;13899;51.174;4.456;2022-11-20T14:04:51;10.20;;;7.82;;
25917;SDS011;13899;51.174;4.456;2022-11-20T14:07:20;10.65;;;7.90;;
25917;SDS011;13899;51.174;4.456;2022-11-20T14:09:59;13.48;;;8.68;;
25917;SDS011;13899;51.174;4.456;2022-11-20T14:12:37;10.25;;;8.85;;
25917;SDS011;13899;51.174;4.456;2022-11-20T14:15:02;15.10;;;10.47;;
25917;SDS011;13899;51.174;4.456;2022-11-20T14:17:34;12.63;;;9.77;;
25917;SDS011;13899;51.174;4.456;2022-11-20T14:20:02;10.48;;;8.68;;
25917;SDS011;13899;51.174;4.456;2022-11-20T14:22:31;11.60;;;8.90;;
25917;SDS011;13899;51.174;4.456;2022-11-20T14:25:01;13.73;;;7.97;;
25917;SDS011;13899;51.174;4.456;2022-11-20T14:27:32;9.75;;;8.25;;
25917;SDS011;13899;51.174;4.456;2022-11-20T14:30:14;9.35;;;8.40;;
25917;SDS011;13899;51.174;4.456;2022-11-20T14:32:43;10.25;;;8.30;;
25917;SDS011;13899;51.174;4.456;2022-11-20T14:35:28;10.27;;;9.13;;
25917;SDS011;13899;51.174;4.456;2022-11-20T14:37:56;11.55;;;8.15;;
25917;SDS011;13899;51.174;4.456;2022-11-20T14:42:58;8.77;;;7.88;;
25917;SDS011;13899;51.174;4.456;2022-11-20T14:45:30;9.25;;;7.88;;
25917;SDS011;13899;51.174;4.456;2022-11-20T14:47:57;8.40;;;7.60;;
25917;SDS011;13899;51.174;4.456;2022-11-20T14:50:26;8.48;;;7.55;;
25917;SDS011;13899;51.174;4.456;2022-11-20T14:52:53;10.00;;;9.18;;
25917;SDS011;13899;51.174;4.456;2022-11-20T14:55:31;8.40;;;7.60;;
25917;SDS011;13899;51.174;4.456;2022-11-20T14:58:26;8.75;;;7.63;;
25917;SDS011;13899;51.174;4.456;2022-11-20T15:01:04;9.75;;;7.50;;
25917;SDS011;13899;51.174;4.456;2022-11-20T15:03:40;8.40;;;7.65;;
25917;SDS011;13899;51.174;4.456;2022-11-20T15:06:26;9.20;;;8.15;;
25917;SDS011;13899;51.174;4.456;2022-11-20T15:08:52;8.10;;;7.45;;
25917;SDS011;13899;51.174;4.456;2022-11-20T15:11:19;9.27;;;8.45;;
25917;SDS011;13899;51.174;4.456;2022-11-20T15:13:52;9.43;;;8.60;;
25917;SDS011;13899;51.174;4.456;2022-11-20T15:18:53;10.70;;;9.68;;
25917;SDS011;13899;51.174;4.456;2022-11-20T15:21:20;8.93;;;8.02;;
25917;SDS011;13899;51.174;4.456;2022-11-20T15:23:47;9.88;;;8.93;;
25917;SDS011;13899;51.174;4.456;2022-11-20T15:26:26;9.18;;;8.38;;
25917;SDS011;13899;51.174;4.456;2022-11-20T15:28:53;9.90;;;9.10;;
25917;SDS011;13899;51.174;4.456;2022-11-20T15:31:20;9.40;;;8.50;;
25917;SDS011;13899;51.174;4.456;2022-11-20T15:34:07;10.10;;;9.10;;
25917;SDS011;13899;51.174;4.456;2022-11-20T15:39:28;11.27;;;8.48;;
25917;SDS011;13899;51.174;4.456;2022-11-20T15:42:15;10.90;;;9.90;;
25917;SDS011;13899;51.174;4.456;2022-11-20T15:44:47;10.32;;;9.27;;
25917;SDS011;13899;51.174;4.456;2022-11-20T15:47:13;14.17;;;10.57;;
25917;SDS011;13899;51.174;4.456;2022-11-20T15:49:43;11.07;;;10.07;;
25917;SDS011;13899;51.174;4.456;2022-11-20T15:52:17;10.82;;;9.77;;
25917;SDS011;13899;51.174;4.456;2022-11-20T15:54:42;10.90;;;10.00;;
25917;SDS011;13899;51.174;4.456;2022-11-20T15:57:11;10.85;;;9.80;;
25917;SDS011;13899;51.174;4.456;2022-11-20T15:59:38;10.35;;;9.23;;
25917;SDS011;13899;51.174;4.456;2022-11-20T16:02:12;11.25;;;9.50;;
25917;SDS011;13899;51.174;4.456;2022-11-20T16:08:30;13.57;;;10.15;;
25917;SDS011;13899;51.174;4.456;2022-11-20T16:10:56;11.87;;;10.10;;
25917;SDS011;13899;51.174;4.456;2022-11-20T16:13:21;11.20;;;9.98;;
25917;SDS011;13899;51.174;4.456;2022-11-20T16:16:07;15.97;;;11.57;;
25917;SDS011;13899;51.174;4.456;2022-11-20T16:19:00;13.73;;;10.88;;